Chetwynd Airport
CYCQ : now visible

Airfield :











YOU CAN JOIN US ON...

 
LOGIN :

Register | Disclaimer

   EN    FR    IT 

 









Legend :    VFR   Marginal VFR   IFR   Intensive IFR   Very Intensive IFR
Visi :
Ceiling :
>= 8 km
>= 3000ft
5 to 8 km
1000 to 3000 ft
1500m to 5 km
500 to 1000 ft
800 to 1500m
200 to 500 ft
< 800m
< 200 ft
Symbols :   Thunderstorms  Fog  Heavy snow  Heavy precipitations  Wind > 20 kt






- Airport Elevation : 2000 ft
- IATA code : YCQ


CYCQ - Chetwynd

CURRENT METAR :
  • 042300Z 20010G17KT 15SM FEW030 SCT120 SCT160 BKN190 OVC210 08/M01 A3008 RMK SC1AC2AS1CS2CI2 DIST PCPN MTS W VIRGA S-W ACSL W SLP207

EXPIRED METARs :
  • 042200Z 23013G21KT 35SM FEW040 SCT080 SCT120 BKN180 OVC220 09/M02 A3006 RMK SC1AC2AS1CS1CI3 DIST PCPN MTS W ACSL S-N VIRGA N+S+W SLP203
  • 042100Z 21016G25KT 35SM FEW040 SCT075 SCT130 OVC190 09/M03 A3007 RMK SC1AC2AS1CS4 ACSL S+W+NW VIRGA W SUN DMLY VISBL SLP204

TAF N/A
CZEG FIR / North America



MET'MAP, your aeronautical weather chart ! - Copyright ORBIFLY December 2007 - Disclaimer

ORBIFLY MET'MAP TEAM :

Programming & Development : Alexandra Zaïnal
Concept & original design : Baudouin d'Aumeries
Assistance for programming : Marc-Olivier Méhu
Technical & hardware support : Manuel Goepfert

Contact : metmap@orbifly.com




SOURCES & CREDITS :

   NOAA       Earth
Advisory